sensor_id;sensor_type;location;lat;lon;timestamp;P1;durP1;ratioP1;P2;durP2;ratioP2
71767;SDS011;59604;52.138;5.446;2022-10-17T00:00:53;11.98;;;5.70;;
71767;SDS011;59604;52.138;5.446;2022-10-17T00:03:19;11.98;;;5.93;;
71767;SDS011;59604;52.138;5.446;2022-10-17T00:05:46;11.40;;;5.85;;
71767;SDS011;59604;52.138;5.446;2022-10-17T00:08:14;11.18;;;5.32;;
71767;SDS011;59604;52.138;5.446;2022-10-17T00:10:42;9.98;;;5.05;;
71767;SDS011;59604;52.138;5.446;2022-10-17T00:13:08;12.20;;;6.03;;
71767;SDS011;59604;52.138;5.446;2022-10-17T00:15:36;12.70;;;5.95;;
71767;SDS011;59604;52.138;5.446;2022-10-17T00:18:03;11.57;;;6.57;;
71767;SDS011;59604;52.138;5.446;2022-10-17T00:20:29;13.95;;;6.93;;
71767;SDS011;59604;52.138;5.446;2022-10-17T00:22:57;11.70;;;5.65;;
71767;SDS011;59604;52.138;5.446;2022-10-17T00:25:24;12.52;;;5.78;;
71767;SDS011;59604;52.138;5.446;2022-10-17T00:27:50;11.35;;;5.53;;
71767;SDS011;59604;52.138;5.446;2022-10-17T00:30:17;14.55;;;6.35;;
71767;SDS011;59604;52.138;5.446;2022-10-17T00:32:44;12.55;;;6.45;;
71767;SDS011;59604;52.138;5.446;2022-10-17T00:35:10;12.70;;;6.70;;
71767;SDS011;59604;52.138;5.446;2022-10-17T00:37:37;13.40;;;6.60;;
71767;SDS011;59604;52.138;5.446;2022-10-17T00:40:04;15.30;;;6.60;;
71767;SDS011;59604;52.138;5.446;2022-10-17T00:42:32;13.90;;;6.78;;
71767;SDS011;59604;52.138;5.446;2022-10-17T00:45:06;11.20;;;6.82;;
71767;SDS011;59604;52.138;5.446;2022-10-17T00:48:05;13.35;;;6.55;;
71767;SDS011;59604;52.138;5.446;2022-10-17T00:50:35;12.60;;;6.40;;
71767;SDS011;59604;52.138;5.446;2022-10-17T00:53:04;12.57;;;6.30;;
71767;SDS011;59604;52.138;5.446;2022-10-17T00:55:33;13.27;;;6.47;;
71767;SDS011;59604;52.138;5.446;2022-10-17T00:58:04;12.85;;;6.82;;
71767;SDS011;59604;52.138;5.446;2022-10-17T01:00:32;10.90;;;6.22;;
71767;SDS011;59604;52.138;5.446;2022-10-17T01:02:59;12.93;;;6.15;;
71767;SDS011;59604;52.138;5.446;2022-10-17T01:05:25;14.60;;;7.35;;
71767;SDS011;59604;52.138;5.446;2022-10-17T01:07:52;11.88;;;6.90;;
71767;SDS011;59604;52.138;5.446;2022-10-17T01:10:19;11.00;;;6.60;;
71767;SDS011;59604;52.138;5.446;2022-10-17T01:12:56;12.93;;;6.38;;
71767;SDS011;59604;52.138;5.446;2022-10-17T01:32:21;17.40;;;6.53;;
71767;SDS011;59604;52.138;5.446;2022-10-17T01:35:13;14.40;;;6.32;;
71767;SDS011;59604;52.138;5.446;2022-10-17T01:37:45;12.57;;;6.80;;
71767;SDS011;59604;52.138;5.446;2022-10-17T01:40:24;12.48;;;6.57;;
71767;SDS011;59604;52.138;5.446;2022-10-17T01:42:56;10.68;;;6.05;;
71767;SDS011;59604;52.138;5.446;2022-10-17T01:45:30;13.32;;;6.10;;
71767;SDS011;59604;52.138;5.446;2022-10-17T01:48:11;12.57;;;7.30;;
71767;SDS011;59604;52.138;5.446;2022-10-17T01:50:44;11.95;;;7.05;;
71767;SDS011;59604;52.138;5.446;2022-10-17T01:53:18;11.10;;;6.35;;
71767;SDS011;59604;52.138;5.446;2022-10-17T01:55:50;13.88;;;6.88;;
71767;SDS011;59604;52.138;5.446;2022-10-17T01:58:23;12.48;;;6.90;;
71767;SDS011;59604;52.138;5.446;2022-10-17T02:00:56;13.20;;;6.95;;
71767;SDS011;59604;52.138;5.446;2022-10-17T02:03:26;14.27;;;6.95;;
71767;SDS011;59604;52.138;5.446;2022-10-17T02:05:53;12.18;;;6.70;;
71767;SDS011;59604;52.138;5.446;2022-10-17T02:08:24;13.77;;;7.25;;
71767;SDS011;59604;52.138;5.446;2022-10-17T02:11:00;11.02;;;6.38;;
71767;SDS011;59604;52.138;5.446;2022-10-17T02:16:39;14.25;;;7.30;;
71767;SDS011;59604;52.138;5.446;2022-10-17T02:30:53;12.52;;;7.30;;
71767;SDS011;59604;52.138;5.446;2022-10-17T02:33:38;13.10;;;7.00;;
71767;SDS011;59604;52.138;5.446;2022-10-17T02:36:09;13.68;;;7.22;;
71767;SDS011;59604;52.138;5.446;2022-10-17T02:38:40;15.93;;;7.85;;
71767;SDS011;59604;52.138;5.446;2022-10-17T02:41:10;15.68;;;7.80;;
71767;SDS011;59604;52.138;5.446;2022-10-17T02:43:41;16.70;;;8.05;;
71767;SDS011;59604;52.138;5.446;2022-10-17T02:46:11;14.73;;;7.65;;
71767;SDS011;59604;52.138;5.446;2022-10-17T02:48:47;15.13;;;8.43;;
71767;SDS011;59604;52.138;5.446;2022-10-17T02:51:27;14.10;;;7.25;;
71767;SDS011;59604;52.138;5.446;2022-10-17T02:54:16;14.43;;;7.18;;
71767;SDS011;59604;52.138;5.446;2022-10-17T02:56:52;13.65;;;6.80;;
71767;SDS011;59604;52.138;5.446;2022-10-17T03:01:51;14.93;;;7.15;;
71767;SDS011;59604;52.138;5.446;2022-10-17T03:04:18;15.95;;;6.90;;
71767;SDS011;59604;52.138;5.446;2022-10-17T03:06:46;16.40;;;7.80;;
71767;SDS011;59604;52.138;5.446;2022-10-17T03:09:14;18.45;;;8.45;;
71767;SDS011;59604;52.138;5.446;2022-10-17T03:11:41;15.10;;;7.57;;
71767;SDS011;59604;52.138;5.446;2022-10-17T03:14:08;14.82;;;7.40;;
71767;SDS011;59604;52.138;5.446;2022-10-17T03:16:34;16.65;;;7.68;;
71767;SDS011;59604;52.138;5.446;2022-10-17T03:19:01;15.60;;;8.32;;
71767;SDS011;59604;52.138;5.446;2022-10-17T03:21:28;17.65;;;7.80;;
71767;SDS011;59604;52.138;5.446;2022-10-17T03:23:54;18.02;;;8.43;;
71767;SDS011;59604;52.138;5.446;2022-10-17T03:26:21;16.52;;;7.43;;
71767;SDS011;59604;52.138;5.446;2022-10-17T03:28:47;13.57;;;7.65;;
71767;SDS011;59604;52.138;5.446;2022-10-17T03:31:19;15.40;;;7.47;;
71767;SDS011;59604;52.138;5.446;2022-10-17T03:33:46;16.10;;;7.50;;
71767;SDS011;59604;52.138;5.446;2022-10-17T03:36:13;13.93;;;7.43;;
71767;SDS011;59604;52.138;5.446;2022-10-17T03:38:42;14.35;;;6.88;;
71767;SDS011;59604;52.138;5.446;2022-10-17T03:41:09;14.85;;;7.45;;
71767;SDS011;59604;52.138;5.446;2022-10-17T03:43:36;14.40;;;7.40;;
71767;SDS011;59604;52.138;5.446;2022-10-17T03:46:03;18.13;;;7.68;;
71767;SDS011;59604;52.138;5.446;2022-10-17T03:48:31;15.50;;;7.90;;
71767;SDS011;59604;52.138;5.446;2022-10-17T03:51:02;16.05;;;8.10;;
71767;SDS011;59604;52.138;5.446;2022-10-17T03:53:30;16.05;;;7.47;;
71767;SDS011;59604;52.138;5.446;2022-10-17T03:55:56;17.48;;;7.75;;
71767;SDS011;59604;52.138;5.446;2022-10-17T03:58:34;14.27;;;7.28;;
71767;SDS011;59604;52.138;5.446;2022-10-17T04:01:08;16.90;;;8.38;;
71767;SDS011;59604;52.138;5.446;2022-10-17T04:03:37;14.18;;;7.43;;
71767;SDS011;59604;52.138;5.446;2022-10-17T04:06:05;14.05;;;7.68;;
71767;SDS011;59604;52.138;5.446;2022-10-17T04:08:32;17.83;;;8.10;;
71767;SDS011;59604;52.138;5.446;2022-10-17T04:11:00;17.52;;;7.88;;
71767;SDS011;59604;52.138;5.446;2022-10-17T04:13:30;16.35;;;8.43;;
71767;SDS011;59604;52.138;5.446;2022-10-17T04:16:02;16.45;;;7.93;;
71767;SDS011;59604;52.138;5.446;2022-10-17T04:18:31;14.05;;;7.72;;
71767;SDS011;59604;52.138;5.446;2022-10-17T04:20:59;16.67;;;8.27;;
71767;SDS011;59604;52.138;5.446;2022-10-17T04:23:29;15.55;;;7.78;;
71767;SDS011;59604;52.138;5.446;2022-10-17T04:25:56;14.88;;;7.75;;
71767;SDS011;59604;52.138;5.446;2022-10-17T04:28:24;16.88;;;7.22;;
71767;SDS011;59604;52.138;5.446;2022-10-17T04:30:58;17.73;;;8.32;;
71767;SDS011;59604;52.138;5.446;2022-10-17T04:33:26;17.33;;;7.55;;
71767;SDS011;59604;52.138;5.446;2022-10-17T04:35:59;15.77;;;7.70;;
71767;SDS011;59604;52.138;5.446;2022-10-17T04:40:57;13.48;;;7.13;;
71767;SDS011;59604;52.138;5.446;2022-10-17T04:43:28;15.80;;;7.95;;
71767;SDS011;59604;52.138;5.446;2022-10-17T04:45:58;16.73;;;7.75;;
71767;SDS011;59604;52.138;5.446;2022-10-17T04:51:00;17.15;;;7.35;;
71767;SDS011;59604;52.138;5.446;2022-10-17T04:53:30;14.32;;;7.68;;
71767;SDS011;59604;52.138;5.446;2022-10-17T04:55:58;15.93;;;8.13;;
71767;SDS011;59604;52.138;5.446;2022-10-17T04:58:25;17.48;;;7.55;;
71767;SDS011;59604;52.138;5.446;2022-10-17T05:00:55;16.13;;;7.50;;
71767;SDS011;59604;52.138;5.446;2022-10-17T05:03:22;18.10;;;7.88;;
71767;SDS011;59604;52.138;5.446;2022-10-17T05:05:48;14.82;;;7.50;;
71767;SDS011;59604;52.138;5.446;2022-10-17T05:08:15;16.90;;;8.35;;
71767;SDS011;59604;52.138;5.446;2022-10-17T05:10:42;14.23;;;7.72;;
71767;SDS011;59604;52.138;5.446;2022-10-17T05:13:11;16.30;;;8.48;;
71767;SDS011;59604;52.138;5.446;2022-10-17T05:15:38;14.43;;;7.93;;
71767;SDS011;59604;52.138;5.446;2022-10-17T05:18:05;15.60;;;7.40;;
71767;SDS011;59604;52.138;5.446;2022-10-17T05:20:32;15.82;;;7.68;;
71767;SDS011;59604;52.138;5.446;2022-10-17T05:22:59;18.15;;;7.93;;
71767;SDS011;59604;52.138;5.446;2022-10-17T05:25:26;15.30;;;7.00;;
71767;SDS011;59604;52.138;5.446;2022-10-17T05:27:53;14.25;;;7.10;;
71767;SDS011;59604;52.138;5.446;2022-10-17T05:30:20;16.05;;;8.85;;
71767;SDS011;59604;52.138;5.446;2022-10-17T05:32:46;14.65;;;7.70;;
71767;SDS011;59604;52.138;5.446;2022-10-17T05:35:13;17.23;;;7.70;;
71767;SDS011;59604;52.138;5.446;2022-10-17T05:37:39;18.65;;;8.13;;
71767;SDS011;59604;52.138;5.446;2022-10-17T05:40:06;13.15;;;6.88;;
71767;SDS011;59604;52.138;5.446;2022-10-17T05:42:33;14.30;;;7.47;;
71767;SDS011;59604;52.138;5.446;2022-10-17T05:45:00;14.52;;;7.28;;
71767;SDS011;59604;52.138;5.446;2022-10-17T05:47:26;16.20;;;7.28;;
71767;SDS011;59604;52.138;5.446;2022-10-17T05:49:53;16.65;;;8.02;;
71767;SDS011;59604;52.138;5.446;2022-10-17T05:52:20;14.10;;;7.15;;
71767;SDS011;59604;52.138;5.446;2022-10-17T05:54:46;13.95;;;6.85;;
71767;SDS011;59604;52.138;5.446;2022-10-17T05:57:13;14.30;;;7.43;;
71767;SDS011;59604;52.138;5.446;2022-10-17T05:59:39;14.75;;;7.15;;
71767;SDS011;59604;52.138;5.446;2022-10-17T06:02:07;13.23;;;7.13;;
71767;SDS011;59604;52.138;5.446;2022-10-17T06:04:35;13.15;;;7.03;;
71767;SDS011;59604;52.138;5.446;2022-10-17T06:07:03;14.70;;;6.75;;
71767;SDS011;59604;52.138;5.446;2022-10-17T06:09:30;15.75;;;7.28;;
71767;SDS011;59604;52.138;5.446;2022-10-17T06:11:57;15.93;;;7.25;;
71767;SDS011;59604;52.138;5.446;2022-10-17T06:14:23;15.07;;;7.63;;
71767;SDS011;59604;52.138;5.446;2022-10-17T06:16:50;15.73;;;7.30;;
71767;SDS011;59604;52.138;5.446;2022-10-17T06:19:16;13.90;;;6.60;;
71767;SDS011;59604;52.138;5.446;2022-10-17T06:21:43;16.15;;;7.22;;
71767;SDS011;59604;52.138;5.446;2022-10-17T06:24:09;14.10;;;7.18;;
71767;SDS011;59604;52.138;5.446;2022-10-17T06:26:36;14.75;;;7.13;;
71767;SDS011;59604;52.138;5.446;2022-10-17T06:29:03;16.55;;;7.53;;
71767;SDS011;59604;52.138;5.446;2022-10-17T06:31:29;15.65;;;7.22;;
71767;SDS011;59604;52.138;5.446;2022-10-17T06:33:56;15.50;;;7.32;;
71767;SDS011;59604;52.138;5.446;2022-10-17T06:36:22;14.45;;;7.30;;
71767;SDS011;59604;52.138;5.446;2022-10-17T06:38:49;17.00;;;7.93;;
71767;SDS011;59604;52.138;5.446;2022-10-17T06:41:15;15.63;;;7.57;;
71767;SDS011;59604;52.138;5.446;2022-10-17T06:43:44;15.45;;;7.18;;
71767;SDS011;59604;52.138;5.446;2022-10-17T06:46:12;16.45;;;7.13;;
71767;SDS011;59604;52.138;5.446;2022-10-17T06:48:40;15.27;;;7.72;;
71767;SDS011;59604;52.138;5.446;2022-10-17T06:51:07;16.25;;;7.22;;
71767;SDS011;59604;52.138;5.446;2022-10-17T06:53:37;15.00;;;7.70;;
71767;SDS011;59604;52.138;5.446;2022-10-17T06:56:05;16.83;;;7.80;;
71767;SDS011;59604;52.138;5.446;2022-10-17T06:58:34;16.77;;;7.85;;
71767;SDS011;59604;52.138;5.446;2022-10-17T07:01:06;19.20;;;7.80;;
71767;SDS011;59604;52.138;5.446;2022-10-17T07:03:34;15.65;;;7.30;;
71767;SDS011;59604;52.138;5.446;2022-10-17T07:06:01;13.65;;;6.97;;
71767;SDS011;59604;52.138;5.446;2022-10-17T07:08:28;14.63;;;7.18;;
71767;SDS011;59604;52.138;5.446;2022-10-17T07:10:55;15.88;;;7.15;;
71767;SDS011;59604;52.138;5.446;2022-10-17T07:13:21;14.65;;;6.97;;
71767;SDS011;59604;52.138;5.446;2022-10-17T07:15:48;13.65;;;7.25;;
71767;SDS011;59604;52.138;5.446;2022-10-17T07:18:14;14.30;;;6.72;;
71767;SDS011;59604;52.138;5.446;2022-10-17T07:20:41;14.90;;;7.10;;
71767;SDS011;59604;52.138;5.446;2022-10-17T07:23:08;12.68;;;6.72;;
71767;SDS011;59604;52.138;5.446;2022-10-17T07:25:35;16.33;;;8.07;;
71767;SDS011;59604;52.138;5.446;2022-10-17T07:28:05;11.93;;;6.60;;
71767;SDS011;59604;52.138;5.446;2022-10-17T07:30:31;14.30;;;6.57;;
71767;SDS011;59604;52.138;5.446;2022-10-17T07:32:58;14.18;;;6.90;;
71767;SDS011;59604;52.138;5.446;2022-10-17T07:35:25;13.45;;;6.65;;
71767;SDS011;59604;52.138;5.446;2022-10-17T07:37:51;12.10;;;7.05;;
71767;SDS011;59604;52.138;5.446;2022-10-17T07:40:18;12.55;;;6.75;;
71767;SDS011;59604;52.138;5.446;2022-10-17T07:42:44;12.68;;;6.40;;
71767;SDS011;59604;52.138;5.446;2022-10-17T07:45:11;15.32;;;6.90;;
71767;SDS011;59604;52.138;5.446;2022-10-17T07:47:37;12.65;;;6.85;;
71767;SDS011;59604;52.138;5.446;2022-10-17T07:50:04;13.95;;;6.65;;
71767;SDS011;59604;52.138;5.446;2022-10-17T07:52:31;14.27;;;6.35;;
71767;SDS011;59604;52.138;5.446;2022-10-17T07:54:57;13.63;;;7.55;;
71767;SDS011;59604;52.138;5.446;2022-10-17T07:57:24;16.27;;;7.55;;
71767;SDS011;59604;52.138;5.446;2022-10-17T07:59:51;13.43;;;6.80;;
71767;SDS011;59604;52.138;5.446;2022-10-17T08:04:47;15.30;;;7.00;;
71767;SDS011;59604;52.138;5.446;2022-10-17T08:07:14;13.60;;;7.35;;
71767;SDS011;59604;52.138;5.446;2022-10-17T08:09:49;15.07;;;7.55;;
71767;SDS011;59604;52.138;5.446;2022-10-17T08:12:16;13.18;;;7.13;;
71767;SDS011;59604;52.138;5.446;2022-10-17T08:14:42;15.10;;;7.10;;
71767;SDS011;59604;52.138;5.446;2022-10-17T08:17:10;23.85;;;7.28;;
71767;SDS011;59604;52.138;5.446;2022-10-17T08:19:37;15.15;;;6.95;;
71767;SDS011;59604;52.138;5.446;2022-10-17T08:22:06;12.55;;;7.00;;
71767;SDS011;59604;52.138;5.446;2022-10-17T08:24:33;13.40;;;6.82;;
71767;SDS011;59604;52.138;5.446;2022-10-17T08:27:00;14.45;;;7.00;;
71767;SDS011;59604;52.138;5.446;2022-10-17T08:29:27;14.93;;;6.75;;
71767;SDS011;59604;52.138;5.446;2022-10-17T08:31:54;15.88;;;6.85;;
71767;SDS011;59604;52.138;5.446;2022-10-17T08:34:26;15.00;;;6.70;;
71767;SDS011;59604;52.138;5.446;2022-10-17T08:36:53;13.80;;;6.93;;
71767;SDS011;59604;52.138;5.446;2022-10-17T08:39:19;16.88;;;7.18;;
71767;SDS011;59604;52.138;5.446;2022-10-17T08:47:08;14.07;;;6.82;;
71767;SDS011;59604;52.138;5.446;2022-10-17T08:49:42;14.25;;;7.10;;
71767;SDS011;59604;52.138;5.446;2022-10-17T08:52:39;16.35;;;7.47;;
71767;SDS011;59604;52.138;5.446;2022-10-17T08:55:12;14.60;;;7.35;;
71767;SDS011;59604;52.138;5.446;2022-10-17T08:57:42;16.35;;;6.80;;
71767;SDS011;59604;52.138;5.446;2022-10-17T09:00:14;16.60;;;7.70;;
71767;SDS011;59604;52.138;5.446;2022-10-17T09:05:26;15.27;;;7.63;;
71767;SDS011;59604;52.138;5.446;2022-10-17T09:10:44;12.27;;;6.47;;
71767;SDS011;59604;52.138;5.446;2022-10-17T09:15:56;19.10;;;7.60;;
71767;SDS011;59604;52.138;5.446;2022-10-17T09:18:44;25.45;;;8.75;;
71767;SDS011;59604;52.138;5.446;2022-10-17T09:24:12;15.90;;;7.32;;
71767;SDS011;59604;52.138;5.446;2022-10-17T09:26:44;14.98;;;7.25;;
71767;SDS011;59604;52.138;5.446;2022-10-17T09:29:17;15.50;;;7.35;;
71767;SDS011;59604;52.138;5.446;2022-10-17T09:31:51;12.95;;;6.68;;
71767;SDS011;59604;52.138;5.446;2022-10-17T09:34:25;15.90;;;6.80;;
71767;SDS011;59604;52.138;5.446;2022-10-17T09:36:54;15.23;;;7.00;;
71767;SDS011;59604;52.138;5.446;2022-10-17T09:39:24;15.85;;;7.57;;
71767;SDS011;59604;52.138;5.446;2022-10-17T09:41:58;16.80;;;7.57;;
71767;SDS011;59604;52.138;5.446;2022-10-17T09:44:30;19.90;;;8.30;;
71767;SDS011;59604;52.138;5.446;2022-10-17T09:47:21;17.05;;;7.75;;
71767;SDS011;59604;52.138;5.446;2022-10-17T09:49:57;25.70;;;8.55;;
71767;SDS011;59604;52.138;5.446;2022-10-17T09:52:33;15.20;;;7.80;;
71767;SDS011;59604;52.138;5.446;2022-10-17T09:55:15;14.20;;;7.75;;
71767;SDS011;59604;52.138;5.446;2022-10-17T09:57:59;14.07;;;7.50;;
71767;SDS011;59604;52.138;5.446;2022-10-17T10:00:29;15.18;;;8.57;;
71767;SDS011;59604;52.138;5.446;2022-10-17T10:08:32;12.77;;;7.47;;
71767;SDS011;59604;52.138;5.446;2022-10-17T10:11:14;14.50;;;7.32;;
71767;SDS011;59604;52.138;5.446;2022-10-17T10:13:43;11.90;;;6.88;;
71767;SDS011;59604;52.138;5.446;2022-10-17T10:16:15;15.98;;;7.72;;
71767;SDS011;59604;52.138;5.446;2022-10-17T10:18:45;13.35;;;7.00;;
71767;SDS011;59604;52.138;5.446;2022-10-17T10:21:17;15.02;;;7.20;;
71767;SDS011;59604;52.138;5.446;2022-10-17T10:26:25;17.80;;;7.40;;
71767;SDS011;59604;52.138;5.446;2022-10-17T10:28:59;16.27;;;7.35;;
71767;SDS011;59604;52.138;5.446;2022-10-17T10:31:34;15.77;;;8.10;;
71767;SDS011;59604;52.138;5.446;2022-10-17T10:34:13;15.13;;;7.70;;
71767;SDS011;59604;52.138;5.446;2022-10-17T10:36:56;15.40;;;7.53;;
71767;SDS011;59604;52.138;5.446;2022-10-17T10:39:45;14.35;;;6.97;;
71767;SDS011;59604;52.138;5.446;2022-10-17T10:48:05;13.18;;;7.38;;
71767;SDS011;59604;52.138;5.446;2022-10-17T10:50:44;12.93;;;6.97;;
71767;SDS011;59604;52.138;5.446;2022-10-17T11:07:10;12.52;;;7.25;;
71767;SDS011;59604;52.138;5.446;2022-10-17T11:09:47;11.65;;;6.63;;
71767;SDS011;59604;52.138;5.446;2022-10-17T11:17:41;11.73;;;6.32;;
71767;SDS011;59604;52.138;5.446;2022-10-17T11:23:16;11.15;;;6.18;;
71767;SDS011;59604;52.138;5.446;2022-10-17T11:25:47;11.48;;;6.30;;
71767;SDS011;59604;52.138;5.446;2022-10-17T11:28:17;10.30;;;6.25;;
71767;SDS011;59604;52.138;5.446;2022-10-17T11:33:14;11.95;;;6.35;;
71767;SDS011;59604;52.138;5.446;2022-10-17T11:35:50;10.57;;;6.20;;
71767;SDS011;59604;52.138;5.446;2022-10-17T11:38:26;10.30;;;6.35;;
71767;SDS011;59604;52.138;5.446;2022-10-17T11:41:02;10.45;;;6.53;;
71767;SDS011;59604;52.138;5.446;2022-10-17T11:43:36;12.95;;;6.07;;
71767;SDS011;59604;52.138;5.446;2022-10-17T11:46:11;11.65;;;6.47;;
71767;SDS011;59604;52.138;5.446;2022-10-17T11:48:51;10.05;;;5.90;;
71767;SDS011;59604;52.138;5.446;2022-10-17T11:51:35;11.88;;;6.15;;
71767;SDS011;59604;52.138;5.446;2022-10-17T11:54:48;11.32;;;6.20;;
71767;SDS011;59604;52.138;5.446;2022-10-17T12:05:51;12.02;;;7.38;;
71767;SDS011;59604;52.138;5.446;2022-10-17T12:21:26;10.52;;;6.50;;
71767;SDS011;59604;52.138;5.446;2022-10-17T12:23:57;10.50;;;6.00;;
71767;SDS011;59604;52.138;5.446;2022-10-17T12:26:27;9.98;;;6.10;;
71767;SDS011;59604;52.138;5.446;2022-10-17T12:28:55;10.05;;;5.90;;
71767;SDS011;59604;52.138;5.446;2022-10-17T12:31:23;11.45;;;6.20;;
71767;SDS011;59604;52.138;5.446;2022-10-17T12:33:58;10.32;;;6.18;;
71767;SDS011;59604;52.138;5.446;2022-10-17T12:44:50;11.60;;;6.95;;
71767;SDS011;59604;52.138;5.446;2022-10-17T12:49:36;12.18;;;6.75;;
71767;SDS011;59604;52.138;5.446;2022-10-17T12:57:52;11.85;;;6.88;;
71767;SDS011;59604;52.138;5.446;2022-10-17T13:03:25;13.55;;;6.90;;
71767;SDS011;59604;52.138;5.446;2022-10-17T13:06:02;12.52;;;7.70;;
71767;SDS011;59604;52.138;5.446;2022-10-17T13:08:39;10.82;;;6.75;;
71767;SDS011;59604;52.138;5.446;2022-10-17T13:11:13;13.82;;;7.57;;
71767;SDS011;59604;52.138;5.446;2022-10-17T13:13:41;12.27;;;7.18;;
71767;SDS011;59604;52.138;5.446;2022-10-17T13:19:42;10.75;;;7.22;;
71767;SDS011;59604;52.138;5.446;2022-10-17T13:22:16;11.35;;;7.43;;
71767;SDS011;59604;52.138;5.446;2022-10-17T13:24:45;13.23;;;7.93;;
71767;SDS011;59604;52.138;5.446;2022-10-17T13:27:31;11.45;;;7.53;;
71767;SDS011;59604;52.138;5.446;2022-10-17T13:29:59;11.95;;;7.57;;
71767;SDS011;59604;52.138;5.446;2022-10-17T13:32:35;12.85;;;7.55;;
71767;SDS011;59604;52.138;5.446;2022-10-17T13:35:05;11.95;;;7.63;;
71767;SDS011;59604;52.138;5.446;2022-10-17T13:37:33;14.13;;;7.78;;
71767;SDS011;59604;52.138;5.446;2022-10-17T13:40:01;12.80;;;8.23;;
71767;SDS011;59604;52.138;5.446;2022-10-17T13:42:48;13.23;;;7.90;;
71767;SDS011;59604;52.138;5.446;2022-10-17T13:47:53;14.52;;;7.70;;
71767;SDS011;59604;52.138;5.446;2022-10-17T13:50:30;11.70;;;7.15;;
71767;SDS011;59604;52.138;5.446;2022-10-17T13:53:26;12.75;;;7.57;;
71767;SDS011;59604;52.138;5.446;2022-10-17T13:56:21;12.35;;;7.15;;
71767;SDS011;59604;52.138;5.446;2022-10-17T13:58:58;11.85;;;7.07;;
71767;SDS011;59604;52.138;5.446;2022-10-17T14:01:30;11.05;;;7.25;;
71767;SDS011;59604;52.138;5.446;2022-10-17T14:03:57;15.00;;;7.07;;
71767;SDS011;59604;52.138;5.446;2022-10-17T14:06:36;11.55;;;6.68;;
71767;SDS011;59604;52.138;5.446;2022-10-17T14:09:21;10.55;;;6.95;;
71767;SDS011;59604;52.138;5.446;2022-10-17T14:12:06;12.32;;;7.18;;
71767;SDS011;59604;52.138;5.446;2022-10-17T14:14:38;12.48;;;7.05;;
71767;SDS011;59604;52.138;5.446;2022-10-17T14:17:27;11.45;;;6.75;;
71767;SDS011;59604;52.138;5.446;2022-10-17T14:19:56;14.13;;;6.82;;
71767;SDS011;59604;52.138;5.446;2022-10-17T14:22:48;13.18;;;6.88;;
71767;SDS011;59604;52.138;5.446;2022-10-17T14:25:36;10.38;;;6.63;;
71767;SDS011;59604;52.138;5.446;2022-10-17T14:28:13;11.05;;;6.75;;
71767;SDS011;59604;52.138;5.446;2022-10-17T14:30:45;11.07;;;6.47;;
71767;SDS011;59604;52.138;5.446;2022-10-17T14:33:27;11.73;;;6.85;;
71767;SDS011;59604;52.138;5.446;2022-10-17T14:35:56;10.15;;;6.45;;
71767;SDS011;59604;52.138;5.446;2022-10-17T14:38:25;11.95;;;6.90;;
71767;SDS011;59604;52.138;5.446;2022-10-17T14:41:12;10.15;;;6.15;;
71767;SDS011;59604;52.138;5.446;2022-10-17T14:46:49;10.77;;;6.50;;
71767;SDS011;59604;52.138;5.446;2022-10-17T14:49:27;10.15;;;5.93;;
71767;SDS011;59604;52.138;5.446;2022-10-17T14:54:54;9.43;;;6.43;;
71767;SDS011;59604;52.138;5.446;2022-10-17T14:59:49;10.50;;;5.93;;
71767;SDS011;59604;52.138;5.446;2022-10-17T15:02:21;12.10;;;6.07;;
71767;SDS011;59604;52.138;5.446;2022-10-17T15:04:48;10.77;;;6.07;;
71767;SDS011;59604;52.138;5.446;2022-10-17T15:07:16;12.68;;;6.57;;
71767;SDS011;59604;52.138;5.446;2022-10-17T15:09:43;11.30;;;6.10;;
71767;SDS011;59604;52.138;5.446;2022-10-17T15:12:16;12.93;;;7.63;;
71767;SDS011;59604;52.138;5.446;2022-10-17T15:14:45;14.23;;;6.55;;
71767;SDS011;59604;52.138;5.446;2022-10-17T15:17:15;11.57;;;6.55;;
71767;SDS011;59604;52.138;5.446;2022-10-17T15:19:46;10.80;;;6.25;;
71767;SDS011;59604;52.138;5.446;2022-10-17T15:22:13;10.68;;;6.20;;
71767;SDS011;59604;52.138;5.446;2022-10-17T15:24:41;13.52;;;7.07;;
71767;SDS011;59604;52.138;5.446;2022-10-17T15:29:40;11.05;;;6.82;;
71767;SDS011;59604;52.138;5.446;2022-10-17T15:32:06;10.15;;;6.22;;
71767;SDS011;59604;52.138;5.446;2022-10-17T15:34:33;10.40;;;6.20;;
71767;SDS011;59604;52.138;5.446;2022-10-17T15:36:59;13.15;;;6.30;;
71767;SDS011;59604;52.138;5.446;2022-10-17T15:39:26;12.32;;;6.20;;
71767;SDS011;59604;52.138;5.446;2022-10-17T15:41:52;10.90;;;6.32;;
71767;SDS011;59604;52.138;5.446;2022-10-17T15:44:19;13.48;;;6.55;;
71767;SDS011;59604;52.138;5.446;2022-10-17T15:46:45;11.30;;;6.38;;
71767;SDS011;59604;52.138;5.446;2022-10-17T15:49:13;12.18;;;6.50;;
71767;SDS011;59604;52.138;5.446;2022-10-17T15:51:42;12.52;;;6.25;;
71767;SDS011;59604;52.138;5.446;2022-10-17T15:54:09;11.20;;;6.15;;
71767;SDS011;59604;52.138;5.446;2022-10-17T15:56:41;12.60;;;6.85;;
71767;SDS011;59604;52.138;5.446;2022-10-17T15:59:13;13.50;;;6.95;;
71767;SDS011;59604;52.138;5.446;2022-10-17T16:01:41;20.08;;;7.93;;
71767;SDS011;59604;52.138;5.446;2022-10-17T16:04:10;12.07;;;7.30;;
71767;SDS011;59604;52.138;5.446;2022-10-17T16:06:38;14.43;;;7.28;;
71767;SDS011;59604;52.138;5.446;2022-10-17T16:09:05;12.18;;;6.60;;
71767;SDS011;59604;52.138;5.446;2022-10-17T16:14:04;14.15;;;7.20;;
71767;SDS011;59604;52.138;5.446;2022-10-17T16:16:32;13.85;;;7.15;;
71767;SDS011;59604;52.138;5.446;2022-10-17T16:18:59;12.98;;;7.32;;
71767;SDS011;59604;52.138;5.446;2022-10-17T16:21:27;13.80;;;7.78;;
71767;SDS011;59604;52.138;5.446;2022-10-17T16:23:55;13.10;;;7.45;;
71767;SDS011;59604;52.138;5.446;2022-10-17T16:26:22;16.48;;;7.95;;
71767;SDS011;59604;52.138;5.446;2022-10-17T16:28:49;12.60;;;6.75;;
71767;SDS011;59604;52.138;5.446;2022-10-17T16:31:20;17.40;;;8.25;;
71767;SDS011;59604;52.138;5.446;2022-10-17T16:33:54;15.75;;;8.07;;
71767;SDS011;59604;52.138;5.446;2022-10-17T16:36:22;11.90;;;6.93;;
71767;SDS011;59604;52.138;5.446;2022-10-17T16:38:48;13.85;;;7.53;;
71767;SDS011;59604;52.138;5.446;2022-10-17T16:41:23;16.33;;;7.80;;
71767;SDS011;59604;52.138;5.446;2022-10-17T16:43:51;14.20;;;8.07;;
71767;SDS011;59604;52.138;5.446;2022-10-17T16:46:20;15.57;;;8.35;;
71767;SDS011;59604;52.138;5.446;2022-10-17T16:48:48;14.90;;;7.63;;
71767;SDS011;59604;52.138;5.446;2022-10-17T16:51:15;13.60;;;8.00;;
71767;SDS011;59604;52.138;5.446;2022-10-17T16:53:44;16.33;;;8.07;;
71767;SDS011;59604;52.138;5.446;2022-10-17T16:56:13;18.63;;;10.13;;
71767;SDS011;59604;52.138;5.446;2022-10-17T16:58:43;13.48;;;7.75;;
71767;SDS011;59604;52.138;5.446;2022-10-17T17:01:11;18.27;;;9.90;;
71767;SDS011;59604;52.138;5.446;2022-10-17T17:03:43;15.85;;;8.98;;
71767;SDS011;59604;52.138;5.446;2022-10-17T17:06:15;17.83;;;8.75;;
71767;SDS011;59604;52.138;5.446;2022-10-17T17:08:45;14.32;;;7.22;;
71767;SDS011;59604;52.138;5.446;2022-10-17T17:11:13;14.55;;;7.53;;
71767;SDS011;59604;52.138;5.446;2022-10-17T17:13:41;17.00;;;8.05;;
71767;SDS011;59604;52.138;5.446;2022-10-17T17:16:09;14.57;;;7.07;;
71767;SDS011;59604;52.138;5.446;2022-10-17T17:18:36;14.02;;;7.25;;
71767;SDS011;59604;52.138;5.446;2022-10-17T17:21:04;15.20;;;7.75;;
71767;SDS011;59604;52.138;5.446;2022-10-17T17:23:36;13.85;;;7.18;;
71767;SDS011;59604;52.138;5.446;2022-10-17T17:26:08;14.73;;;7.72;;
71767;SDS011;59604;52.138;5.446;2022-10-17T17:28:42;15.80;;;7.70;;
71767;SDS011;59604;52.138;5.446;2022-10-17T17:31:11;17.20;;;7.45;;
71767;SDS011;59604;52.138;5.446;2022-10-17T17:33:40;15.98;;;8.25;;